createdAt,value
2019-02-02T00:00:29.711Z,17.45
2019-02-02T00:03:07.960Z,16.85
2019-02-02T00:05:43.865Z,18.15
2019-02-02T00:08:19.895Z,17.35
2019-02-02T00:10:54.154Z,18.00
2019-02-02T00:13:27.067Z,16.80
2019-02-02T00:15:58.120Z,15.72
2019-02-02T00:18:33.991Z,17.30
2019-02-02T00:21:05.748Z,18.00
2019-02-02T00:23:44.779Z,16.90
2019-02-02T00:26:20.943Z,17.25
2019-02-02T00:28:51.751Z,16.80
2019-02-02T00:31:22.706Z,18.12
2019-02-02T00:34:03.359Z,17.10
2019-02-02T00:36:34.319Z,18.45
2019-02-02T00:39:19.843Z,18.20
2019-02-02T00:41:55.735Z,16.90
2019-02-02T00:44:35.543Z,19.25
2019-02-02T00:47:05.711Z,17.67
2019-02-02T00:49:37.532Z,17.12
2019-02-02T00:52:08.235Z,18.30
2019-02-02T00:54:48.090Z,16.60
2019-02-02T00:57:17.963Z,17.85
2019-02-02T00:59:49.698Z,18.50
2019-02-02T01:02:31.699Z,17.02
2019-02-02T01:05:02.495Z,16.62
2019-02-02T01:07:34.167Z,18.67
2019-02-02T01:10:24.131Z,18.17
2019-02-02T01:12:56.651Z,17.32
2019-02-02T01:15:26.968Z,17.42
2019-02-02T01:18:12.007Z,16.75
2019-02-02T01:20:42.237Z,18.82
2019-02-02T01:23:14.429Z,17.75
2019-02-02T01:25:46.271Z,19.87
2019-02-02T01:28:18.450Z,20.32
2019-02-02T01:30:54.190Z,18.05
2019-02-02T01:33:23.923Z,20.90
2019-02-02T01:36:04.152Z,19.92
2019-02-02T01:38:41.735Z,21.35
2019-02-02T01:41:13.391Z,19.12
2019-02-02T01:43:45.059Z,19.45
2019-02-02T01:46:25.694Z,21.00
2019-02-02T01:49:09.889Z,18.67
2019-02-02T01:51:42.728Z,17.40
2019-02-02T01:54:15.912Z,18.73
2019-02-02T01:56:46.784Z,17.85
2019-02-02T01:59:24.741Z,19.90
2019-02-02T02:01:58.036Z,19.52
2019-02-02T02:04:33.739Z,20.17
2019-02-02T02:07:16.771Z,19.60
2019-02-02T02:09:53.163Z,19.48
2019-02-02T02:12:30.187Z,17.82
2019-02-02T02:14:59.971Z,20.23
2019-02-02T02:17:31.557Z,18.20
2019-02-02T02:20:03.055Z,19.48
2019-02-02T02:22:41.509Z,17.92
2019-02-02T02:25:33.039Z,18.55
2019-02-02T02:28:09.983Z,18.48
2019-02-02T02:30:41.812Z,17.75
2019-02-02T02:33:11.764Z,19.75
2019-02-02T02:35:41.882Z,18.20
2019-02-02T02:38:17.561Z,20.20
2019-02-02T02:40:56.359Z,17.85
2019-02-02T02:43:26.471Z,18.67
2019-02-02T02:46:08.528Z,19.45
2019-02-02T02:48:42.019Z,19.48
2019-02-02T02:51:12.062Z,20.65
2019-02-02T02:53:41.931Z,19.80
2019-02-02T02:56:24.621Z,20.10
2019-02-02T02:58:54.380Z,19.02
2019-02-02T03:01:36.167Z,20.75
2019-02-02T03:04:07.879Z,18.90
2019-02-02T03:06:37.601Z,20.90
2019-02-02T03:09:09.585Z,19.07
2019-02-02T03:11:46.624Z,19.02
2019-02-02T03:14:16.483Z,21.80
2019-02-02T03:16:46.210Z,21.20
2019-02-02T03:19:16.960Z,20.57
2019-02-02T03:21:47.860Z,22.60
2019-02-02T03:24:17.712Z,20.35
2019-02-02T03:26:48.877Z,22.00
2019-02-02T03:29:25.778Z,20.52
2019-02-02T03:32:06.041Z,20.92
2019-02-02T03:34:36.883Z,20.25
2019-02-02T03:37:07.831Z,18.67
2019-02-02T03:39:39.643Z,21.45
2019-02-02T03:42:09.622Z,20.97
2019-02-02T03:44:40.391Z,19.82
2019-02-02T03:47:22.556Z,21.82
2019-02-02T03:50:06.218Z,21.80
2019-02-02T03:52:41.318Z,21.75
2019-02-02T03:55:14.705Z,20.95
2019-02-02T03:57:48.295Z,22.10
2019-02-02T04:00:24.217Z,19.90
2019-02-02T04:02:54.088Z,20.50
2019-02-02T04:05:29.471Z,22.32
2019-02-02T04:08:06.297Z,20.57
2019-02-02T04:10:39.394Z,22.35
2019-02-02T04:13:38.031Z,21.97
2019-02-02T04:16:08.161Z,19.02
2019-02-02T04:18:52.348Z,21.30
2019-02-02T04:21:47.224Z,18.05
2019-02-02T04:24:24.017Z,20.37
2019-02-02T04:26:55.075Z,21.65
2019-02-02T04:29:25.207Z,20.23
2019-02-02T04:31:59.249Z,21.27
2019-02-02T04:34:31.149Z,19.35
2019-02-02T04:37:01.277Z,19.82
2019-02-02T04:39:39.177Z,18.82
2019-02-02T04:42:36.054Z,20.30
2019-02-02T04:45:24.020Z,19.80
2019-02-02T04:47:57.716Z,20.32
2019-02-02T04:50:50.996Z,19.27
2019-02-02T04:53:25.781Z,20.23
2019-02-02T04:56:12.153Z,19.52
2019-02-02T04:59:29.291Z,20.75
2019-02-02T05:02:10.226Z,20.70
2019-02-02T05:04:43.012Z,21.02
2019-02-02T05:07:22.261Z,18.30
2019-02-02T05:09:54.333Z,23.62
2019-02-02T05:12:29.444Z,19.73
2019-02-02T05:15:01.542Z,20.85
2019-02-02T05:17:45.524Z,19.73
2019-02-02T05:20:20.126Z,21.45
2019-02-02T05:23:21.280Z,20.48
2019-02-02T05:26:01.385Z,20.72
2019-02-02T05:28:44.188Z,20.82
2019-02-02T05:31:16.141Z,21.05
2019-02-02T05:34:08.548Z,20.57
2019-02-02T05:36:44.228Z,19.90
2019-02-02T05:39:22.816Z,22.00
2019-02-02T05:42:09.001Z,19.77
2019-02-02T05:44:40.781Z,19.52
2019-02-02T05:47:14.916Z,19.82
2019-02-02T05:50:11.511Z,21.27
2019-02-02T05:52:59.931Z,21.73
2019-02-02T05:55:41.088Z,22.20
2019-02-02T05:58:39.954Z,19.90
2019-02-02T06:01:20.727Z,18.27
2019-02-02T06:04:00.852Z,19.90
2019-02-02T06:06:43.847Z,19.57
2019-02-02T06:09:26.260Z,20.40
2019-02-02T06:12:13.362Z,21.50
2019-02-02T06:14:46.568Z,20.57
2019-02-02T06:18:07.605Z,17.82
2019-02-02T06:20:38.730Z,20.27
2019-02-02T06:23:08.868Z,21.25
2019-02-02T06:25:49.287Z,21.48
2019-02-02T06:28:22.570Z,21.15
2019-02-02T06:30:52.743Z,22.67
2019-02-02T06:33:37.485Z,21.48
2019-02-02T06:36:22.541Z,19.40
2019-02-02T06:39:08.600Z,22.82
2019-02-02T06:41:38.734Z,22.20
2019-02-02T06:44:08.839Z,21.85
2019-02-02T06:46:52.172Z,21.48
2019-02-02T06:49:23.232Z,20.88
2019-02-02T06:51:54.012Z,21.52
2019-02-02T06:54:24.912Z,21.42
2019-02-02T06:56:54.760Z,22.70
2019-02-02T06:59:24.737Z,20.88
2019-02-02T07:01:54.608Z,21.80
2019-02-02T07:04:27.625Z,22.62
2019-02-02T07:07:02.051Z,20.27
2019-02-02T07:09:51.485Z,23.05
2019-02-02T07:12:21.588Z,22.50
2019-02-02T07:14:53.676Z,21.12
2019-02-02T07:17:23.784Z,21.17
2019-02-02T07:19:54.844Z,21.50
2019-02-02T07:22:42.336Z,21.82
2019-02-02T07:25:20.554Z,22.95
2019-02-02T07:27:50.403Z,21.85
2019-02-02T07:30:49.321Z,21.50
2019-02-02T07:33:40.352Z,21.48
2019-02-02T07:36:14.027Z,20.60
2019-02-02T07:39:26.730Z,21.00
2019-02-02T07:41:58.725Z,21.12
2019-02-02T07:44:34.384Z,21.25
2019-02-02T07:47:25.276Z,22.15
2019-02-02T07:50:01.500Z,20.92
2019-02-02T07:52:37.432Z,20.32
2019-02-02T07:55:12.209Z,20.30
2019-02-02T07:57:42.041Z,20.12
2019-02-02T08:00:39.611Z,21.25
2019-02-02T08:03:00.757Z,19.32
2019-02-02T08:05:30.744Z,20.80
2019-02-02T08:08:00.452Z,20.20
2019-02-02T08:10:30.213Z,22.82
2019-02-02T08:13:00.230Z,18.75
2019-02-02T08:15:34.253Z,20.05
2019-02-02T08:18:10.267Z,22.62
2019-02-02T08:20:40.102Z,21.33
2019-02-02T08:23:10.099Z,22.40
2019-02-02T08:25:40.171Z,20.75
2019-02-02T08:28:10.009Z,20.62
2019-02-02T08:30:51.922Z,22.95
2019-02-02T08:33:16.004Z,21.93
2019-02-02T08:35:46.126Z,21.90
2019-02-02T08:38:24.373Z,21.85
2019-02-02T08:40:56.093Z,21.40
2019-02-02T08:43:26.968Z,22.85
2019-02-02T08:46:10.116Z,22.80
2019-02-02T08:48:41.268Z,23.87
2019-02-02T08:51:12.285Z,22.37
2019-02-02T08:53:46.424Z,22.00
2019-02-02T08:56:17.133Z,21.52
2019-02-02T08:58:54.889Z,22.45
2019-02-02T09:01:25.060Z,24.10
2019-02-02T09:03:56.257Z,20.70
2019-02-02T09:06:38.726Z,20.88
2019-02-02T09:09:15.817Z,22.93
2019-02-02T09:11:48.784Z,20.35
2019-02-02T09:14:25.917Z,21.25
2019-02-02T09:16:57.729Z,22.17
2019-02-02T09:19:28.345Z,21.30
2019-02-02T09:21:59.085Z,19.17
2019-02-02T09:24:29.061Z,22.52
2019-02-02T09:26:58.894Z,23.18
2019-02-02T09:29:28.911Z,20.50
2019-02-02T09:32:04.259Z,21.10
2019-02-02T09:34:37.349Z,22.05
2019-02-02T09:37:08.221Z,22.00
2019-02-02T09:39:38.337Z,20.95
2019-02-02T09:42:19.660Z,22.15
2019-02-02T09:44:49.798Z,20.52
2019-02-02T09:47:21.317Z,19.70
2019-02-02T09:49:51.861Z,22.48
2019-02-02T09:52:22.978Z,21.57
2019-02-02T09:55:00.040Z,21.60
2019-02-02T09:57:36.976Z,22.32
2019-02-02T10:00:14.421Z,21.93
2019-02-02T10:02:50.305Z,23.40
2019-02-02T10:05:23.375Z,21.70
2019-02-02T10:07:54.377Z,24.02
2019-02-02T10:10:29.317Z,20.60
2019-02-02T10:12:59.377Z,22.22
2019-02-02T10:15:30.404Z,22.85
2019-02-02T10:18:01.186Z,22.67
2019-02-02T10:20:32.651Z,22.37
2019-02-02T10:23:07.678Z,20.40
2019-02-02T10:25:37.633Z,21.95
2019-02-02T10:28:16.445Z,23.12
2019-02-02T10:30:50.261Z,21.45
2019-02-02T10:33:20.559Z,21.77
2019-02-02T10:35:51.380Z,20.88
2019-02-02T10:38:22.197Z,20.55
2019-02-02T10:40:52.173Z,22.60
2019-02-02T10:43:22.291Z,21.55
2019-02-02T10:45:53.335Z,20.97
2019-02-02T10:48:23.457Z,21.02
2019-02-02T10:50:53.596Z,21.23
2019-02-02T10:53:24.771Z,20.20
2019-02-02T10:55:56.863Z,22.82
2019-02-02T10:58:26.979Z,22.65
2019-02-02T11:00:56.865Z,19.98
2019-02-02T11:03:27.481Z,20.70
2019-02-02T11:05:59.382Z,20.75
2019-02-02T11:08:29.497Z,20.15
2019-02-02T11:11:00.860Z,22.77
2019-02-02T11:13:30.803Z,22.30
2019-02-02T11:16:00.559Z,21.48
2019-02-02T11:18:30.586Z,21.82
2019-02-02T11:21:04.824Z,21.52
2019-02-02T11:23:34.625Z,22.80
2019-02-02T11:26:08.781Z,23.20
2019-02-02T11:28:38.865Z,23.60
2019-02-02T11:31:14.776Z,23.67
2019-02-02T11:33:44.889Z,20.92
2019-02-02T11:36:14.726Z,23.70
2019-02-02T11:38:44.693Z,21.35
2019-02-02T11:41:23.933Z,21.35
2019-02-02T11:43:53.781Z,23.20
2019-02-02T11:46:23.750Z,21.77
2019-02-02T11:48:53.853Z,19.37
2019-02-02T11:51:24.633Z,20.23
2019-02-02T11:53:54.353Z,21.80
2019-02-02T11:56:39.085Z,22.70
2019-02-02T11:59:09.081Z,20.62
2019-02-02T12:01:39.183Z,22.25
2019-02-02T12:04:09.403Z,21.83
2019-02-02T12:06:39.282Z,20.00
2019-02-02T12:09:10.233Z,21.33
2019-02-02T12:11:40.091Z,20.43
2019-02-02T12:14:10.061Z,20.75
2019-02-02T12:16:39.905Z,20.30
2019-02-02T12:19:09.625Z,21.20
2019-02-02T12:21:40.543Z,21.70
2019-02-02T12:24:14.332Z,21.48
2019-02-02T12:26:44.913Z,21.20
2019-02-02T12:29:14.900Z,19.03
2019-02-02T12:31:44.742Z,20.43
2019-02-02T12:34:14.710Z,20.77
2019-02-02T12:36:44.826Z,20.17
2019-02-02T12:39:15.001Z,21.00
2019-02-02T12:41:45.118Z,21.83
2019-02-02T12:44:15.953Z,20.27
2019-02-02T12:46:45.908Z,20.73
2019-02-02T12:49:16.686Z,20.90
2019-02-02T12:51:46.654Z,20.25
2019-02-02T12:54:16.513Z,19.40
2019-02-02T12:56:46.245Z,22.10
2019-02-02T12:59:16.198Z,20.08
2019-02-02T13:01:46.293Z,18.37
2019-02-02T13:04:24.925Z,20.15
2019-02-02T13:07:01.149Z,19.12
2019-02-02T13:09:31.258Z,20.32
2019-02-02T13:12:02.366Z,19.67
2019-02-02T13:14:32.754Z,20.10
2019-02-02T13:17:02.626Z,20.40
2019-02-02T13:19:32.319Z,22.67
2019-02-02T13:22:08.158Z,20.10
2019-02-02T13:24:38.002Z,20.60
2019-02-02T13:27:07.718Z,20.90
2019-02-02T13:29:37.688Z,20.77
2019-02-02T13:32:08.538Z,21.20
2019-02-02T13:34:39.378Z,19.53
2019-02-02T13:37:09.498Z,21.80
2019-02-02T13:39:39.333Z,22.00
2019-02-02T13:42:10.230Z,21.00
2019-02-02T13:44:40.058Z,21.20
2019-02-02T13:47:10.053Z,19.33
2019-02-02T13:49:52.931Z,18.97
2019-02-02T13:52:23.636Z,19.20
2019-02-02T13:54:53.754Z,20.37
2019-02-02T13:57:23.864Z,19.07
2019-02-02T13:59:53.950Z,18.57
2019-02-02T14:02:26.066Z,19.60
2019-02-02T14:04:56.170Z,18.60
2019-02-02T14:07:26.062Z,18.20
2019-02-02T14:09:58.794Z,17.70
2019-02-02T14:12:28.778Z,17.17
2019-02-02T14:14:58.870Z,18.37
2019-02-02T14:17:32.358Z,17.70
2019-02-02T14:20:14.759Z,18.20
2019-02-02T14:22:49.542Z,17.90
2019-02-02T14:25:19.550Z,18.13
2019-02-02T14:27:49.314Z,17.63
2019-02-02T14:30:26.574Z,17.10
2019-02-02T14:33:13.834Z,17.10
2019-02-02T14:35:39.066Z,16.90
2019-02-02T14:38:09.178Z,16.63
2019-02-02T14:40:39.290Z,17.37
2019-02-02T14:43:11.375Z,16.87
2019-02-02T14:45:41.214Z,16.53
2019-02-02T14:48:12.095Z,17.20
2019-02-02T14:50:45.397Z,16.60
2019-02-02T14:53:16.678Z,14.07
2019-02-02T14:55:46.960Z,16.10
2019-02-02T14:58:18.122Z,12.37
2019-02-02T15:00:48.004Z,14.20
2019-02-02T15:03:25.467Z,13.10
2019-02-02T15:05:49.654Z,13.30
2019-02-02T15:08:20.575Z,16.67
2019-02-02T15:10:50.484Z,15.33
2019-02-02T15:13:20.615Z,13.67
2019-02-02T15:15:56.554Z,16.00
2019-02-02T15:18:29.665Z,12.97
2019-02-02T15:21:01.894Z,14.73
2019-02-02T15:23:32.626Z,13.70
2019-02-02T15:26:15.878Z,15.27
2019-02-02T15:28:48.975Z,14.60
2019-02-02T15:31:20.992Z,15.40
2019-02-02T15:33:51.732Z,13.80
2019-02-02T15:36:23.766Z,14.57
2019-02-02T15:38:54.882Z,15.10
2019-02-02T15:41:26.071Z,14.20
2019-02-02T15:44:01.976Z,15.40
2019-02-02T15:46:32.131Z,13.90
2019-02-02T15:49:03.171Z,12.70
2019-02-02T15:51:40.154Z,13.68
2019-02-02T15:54:09.790Z,14.13
2019-02-02T15:56:39.698Z,14.78
2019-02-02T15:59:19.146Z,14.05
2019-02-02T16:01:51.203Z,15.20
2019-02-02T16:04:23.463Z,14.95
2019-02-02T16:06:53.572Z,15.80
2019-02-02T16:09:23.712Z,15.85
2019-02-02T16:11:53.820Z,17.90
2019-02-02T16:14:29.699Z,17.10
2019-02-02T16:17:03.015Z,17.40
2019-02-02T16:19:34.991Z,17.67
2019-02-02T16:22:06.563Z,17.10
2019-02-02T16:24:38.667Z,17.60
2019-02-02T16:27:10.671Z,19.17
2019-02-02T16:29:41.591Z,19.85
2019-02-02T16:32:13.939Z,20.10
2019-02-02T16:34:44.099Z,18.82
2019-02-02T16:37:26.055Z,20.80
2019-02-02T16:39:57.836Z,16.70
2019-02-02T16:42:27.803Z,17.27
2019-02-02T16:45:05.395Z,17.60
2019-02-02T16:47:36.426Z,16.93
2019-02-02T16:50:18.745Z,18.17
2019-02-02T16:52:48.936Z,17.77
2019-02-02T16:55:19.890Z,17.75
2019-02-02T16:57:50.063Z,18.92
2019-02-02T17:00:31.235Z,17.95
2019-02-02T17:03:19.531Z,19.82
2019-02-02T17:05:49.643Z,17.50
2019-02-02T17:08:19.751Z,17.00
2019-02-02T17:10:55.763Z,18.70
2019-02-02T17:13:29.863Z,17.32
2019-02-02T17:16:00.913Z,19.23
2019-02-02T17:18:37.687Z,19.90
2019-02-02T17:21:09.541Z,18.42
2019-02-02T17:23:39.399Z,19.87
2019-02-02T17:26:09.368Z,20.77
2019-02-02T17:28:39.231Z,21.95
2019-02-02T17:31:11.426Z,20.52
2019-02-02T17:33:40.363Z,21.10
2019-02-02T17:36:31.259Z,20.35
2019-02-02T17:39:09.475Z,19.35
2019-02-02T17:41:39.427Z,19.82
2019-02-02T17:44:13.605Z,16.32
2019-02-02T17:46:45.636Z,19.20
2019-02-02T17:49:15.801Z,19.12
2019-02-02T17:51:55.893Z,17.80
2019-02-02T17:54:28.355Z,20.00
2019-02-02T17:57:13.078Z,18.92
2019-02-02T17:59:45.059Z,19.32
2019-02-02T18:02:21.675Z,20.23
2019-02-02T18:04:55.189Z,18.32
2019-02-02T18:07:32.071Z,19.23
2019-02-02T18:10:29.519Z,20.30
2019-02-02T18:13:01.505Z,20.37
2019-02-02T18:15:36.932Z,20.95
2019-02-02T18:18:07.844Z,21.17
2019-02-02T18:20:39.811Z,20.90
2019-02-02T18:23:19.976Z,21.30
2019-02-02T18:25:51.123Z,24.47
2019-02-02T18:28:21.519Z,24.85
2019-02-02T18:30:57.407Z,19.82
2019-02-02T18:33:29.471Z,17.92
2019-02-02T18:36:03.996Z,20.27
2019-02-02T18:38:40.271Z,21.60
2019-02-02T18:41:11.296Z,19.23
2019-02-02T18:43:41.429Z,17.92
2019-02-02T18:46:19.317Z,18.02
2019-02-02T18:48:54.917Z,20.05
2019-02-02T18:51:24.839Z,18.25
2019-02-02T18:53:54.843Z,18.90
2019-02-02T18:56:26.947Z,19.65
2019-02-02T18:58:59.791Z,20.40
2019-02-02T19:01:30.765Z,18.10
2019-02-02T19:04:12.855Z,20.68
2019-02-02T19:06:52.016Z,19.70
2019-02-02T19:09:38.039Z,17.62
2019-02-02T19:12:08.171Z,19.90
2019-02-02T19:14:44.639Z,21.02
2019-02-02T19:17:35.248Z,18.77
2019-02-02T19:20:10.825Z,22.15
2019-02-02T19:22:40.963Z,26.80
2019-02-02T19:25:18.143Z,21.68
2019-02-02T19:27:59.170Z,20.65
2019-02-02T19:30:38.312Z,21.17
2019-02-02T19:33:20.762Z,21.60
2019-02-02T19:35:50.608Z,20.92
2019-02-02T19:38:20.359Z,21.97
2019-02-02T19:40:59.051Z,22.85
2019-02-02T19:43:37.117Z,19.32
2019-02-02T19:46:09.151Z,17.98
2019-02-02T19:48:39.032Z,21.50
2019-02-02T19:51:14.020Z,21.57
2019-02-02T19:53:43.895Z,20.30
2019-02-02T19:56:18.598Z,18.77
2019-02-02T19:59:03.456Z,19.40
2019-02-02T20:01:36.420Z,20.77
2019-02-02T20:04:06.544Z,21.65
2019-02-02T20:06:38.720Z,18.92
2019-02-02T20:09:10.904Z,19.17
2019-02-02T20:11:41.082Z,17.73
2019-02-02T20:14:14.255Z,19.25
2019-02-02T20:16:51.203Z,19.30
2019-02-02T20:19:44.528Z,19.70
2019-02-02T20:22:15.663Z,20.72
2019-02-02T20:24:54.728Z,21.45
2019-02-02T20:27:26.844Z,21.27
2019-02-02T20:30:01.132Z,19.82
2019-02-02T20:32:39.370Z,21.52
2019-02-02T20:35:21.225Z,19.07
2019-02-02T20:38:09.232Z,22.98
2019-02-02T20:40:40.101Z,21.85
2019-02-02T20:43:13.677Z,21.07
2019-02-02T20:45:44.423Z,23.77
2019-02-02T20:48:19.424Z,27.07
2019-02-02T20:51:10.724Z,27.70
2019-02-02T20:53:58.945Z,27.95
2019-02-02T20:56:36.728Z,23.90
2019-02-02T20:59:07.692Z,22.07
2019-02-02T21:01:43.647Z,20.02
2019-02-02T21:04:15.664Z,19.40
2019-02-02T21:06:57.539Z,19.87
2019-02-02T21:09:37.508Z,21.55
2019-02-02T21:12:07.322Z,23.25
2019-02-02T21:14:37.339Z,25.77
2019-02-02T21:17:38.344Z,26.48
2019-02-02T21:20:23.780Z,25.35
2019-02-02T21:22:56.268Z,22.82
2019-02-02T21:25:39.048Z,25.40
2019-02-02T21:28:15.779Z,23.85
2019-02-02T21:30:46.675Z,22.05
2019-02-02T21:33:29.108Z,21.62
2019-02-02T21:36:04.103Z,21.48
2019-02-02T21:38:39.973Z,19.27
2019-02-02T21:41:12.664Z,25.12
2019-02-02T21:43:50.100Z,24.37
2019-02-02T21:46:31.535Z,24.23
2019-02-02T21:49:04.740Z,23.67
2019-02-02T21:51:40.700Z,23.70
2019-02-02T21:54:10.600Z,22.13
2019-02-02T21:56:58.063Z,22.98
2019-02-02T21:59:39.184Z,23.85
2019-02-02T22:02:09.944Z,19.92
2019-02-02T22:04:58.284Z,24.67
2019-02-02T22:07:28.276Z,20.62
2019-02-02T22:10:04.904Z,20.77
2019-02-02T22:12:38.984Z,22.58
2019-02-02T22:15:23.648Z,21.20
2019-02-02T22:18:09.741Z,22.95
2019-02-02T22:20:39.718Z,22.55
2019-02-02T22:23:15.828Z,23.45
2019-02-02T22:25:56.741Z,24.02
2019-02-02T22:28:34.756Z,22.25
2019-02-02T22:31:05.494Z,22.15
2019-02-02T22:33:39.400Z,21.60
2019-02-02T22:36:09.391Z,21.00
2019-02-02T22:38:39.998Z,24.30
2019-02-02T22:41:19.920Z,22.85
2019-02-02T22:43:58.989Z,21.62
2019-02-02T22:46:31.671Z,21.95
2019-02-02T22:49:15.080Z,22.35
2019-02-02T22:51:45.172Z,22.35
2019-02-02T22:54:16.225Z,23.50
2019-02-02T22:56:48.598Z,22.13
2019-02-02T22:59:24.724Z,22.60
2019-02-02T23:02:04.472Z,24.35
2019-02-02T23:04:40.200Z,24.47
2019-02-02T23:07:30.636Z,27.10
2019-02-02T23:10:28.332Z,26.50
2019-02-02T23:13:26.853Z,25.10
2019-02-02T23:16:07.458Z,26.33
2019-02-02T23:18:39.264Z,25.62
2019-02-02T23:21:20.714Z,23.42
2019-02-02T23:24:06.164Z,22.65
2019-02-02T23:26:45.284Z,22.05
2019-02-02T23:29:21.440Z,23.50
2019-02-02T23:32:09.871Z,24.18
2019-02-02T23:35:02.548Z,24.87
2019-02-02T23:37:36.100Z,32.93
2019-02-02T23:40:18.193Z,22.00
2019-02-02T23:42:49.407Z,22.22
2019-02-02T23:45:19.512Z,23.27
2019-02-02T23:47:51.014Z,23.73
2019-02-02T23:50:22.865Z,22.27
2019-02-02T23:52:57.920Z,19.87
2019-02-02T23:55:39.920Z,19.12
2019-02-02T23:58:15.901Z,18.75
